map of LCG home
LCG - Airport
Location
City:  A Coruņa, Galicia, Spain
Name:A Coruņa Airport
Old (Alt.):Alvedro Airport
ICAO:LECO
IATA:LCG

Details
Type:Airport (Aerodrome, Airfield)
Use:Public/Civil
Latitude:43°18'07"N (43.302061)
Longitude:8°22'38"W (-8.377255)
Datum:WGS 1984
Elevation:326 ft (99 m)
Variation:2.39°W (WMM2015 magnetic declination)
0.13° annual change
Runways:1
Longest:6365 × 148 ft (1940 × 45 m), paved

Time
Time Zone:UTC+1 (DST+2)
Local Time:

Weather
METAR:LECO 150600Z 35007KT 320V040 9999 FEW020 09/07 Q1015 NOSIG
TAF:LECO 150200Z 1503/1603 28007KT 8000 SCT010 BKN030 TX13/1514Z TN07/1506Z
BECMG 1503/1505 34010KT PROB30
TEMPO 1503/1508 4000 RA BKN010

Related Locations
Nearby:
Farthest:NZPH: 12436 mi / 20014 km
Pudding Hill, CAN, NZ

Find:

   beyond  
but within

Other Information
Maps:
NOTAMs:
Links:
Sources:

  
flag of Spain
flag of Galicia
  

Sectional Chart

Flight Planning
at skyvector.com

Satellite Image

Google Maps Satellite view

 

Copyright © 2004-2017 Karl L. Swartz. All rights reserved.
The Great Circle Mapper name and logo are trademarks of the Great Circle Mapper.
All other trademarks mentioned herein belong to their respective owners.
Please see credits for attibutions and further copyright information.

  Follow gcmap on Facebook Follow gcmap on Twitter Follow gcmap on Google+ GCmap on LinkedIn

hCard Microformat

Geo Microformat